Terminal Aerodrome Forecast
Issued by NWS Spokane, WA

Home | Current Version | Previous Version | Text Only | Print | Product List | Glossary On
Versions: 1 2 3 4 5 6 7 8 9 10 11 12 13 14 15 16 17 18 19 20 21 22
000
FTUS46 KOTX 191128
TAFEAT
TAF
KEAT 191128Z 1912/2012 30012KT P6SM BKN150
     FM191500 31006KT P6SM SCT150
     FM192300 30014KT P6SM FEW200
     FM200900 31006KT P6SM FEW200=

USA.gov is the U.S. government's official web portal to all federal, state and local government web resources and services.